sensor_id;sensor_type;location;lat;lon;timestamp;P1;durP1;ratioP1;P2;durP2;ratioP2
27039;SDS011;14589;51.578;7.306;2022-12-07T00:03:37;40.53;;;19.38;;
27039;SDS011;14589;51.578;7.306;2022-12-07T00:06:04;35.17;;;19.20;;
27039;SDS011;14589;51.578;7.306;2022-12-07T00:08:31;37.90;;;19.73;;
27039;SDS011;14589;51.578;7.306;2022-12-07T00:11:05;36.30;;;20.05;;
27039;SDS011;14589;51.578;7.306;2022-12-07T00:13:32;30.85;;;19.05;;
27039;SDS011;14589;51.578;7.306;2022-12-07T00:16:02;31.85;;;19.15;;
27039;SDS011;14589;51.578;7.306;2022-12-07T00:18:28;34.75;;;19.42;;
27039;SDS011;14589;51.578;7.306;2022-12-07T00:20:58;44.15;;;19.02;;
27039;SDS011;14589;51.578;7.306;2022-12-07T00:23:25;33.63;;;19.38;;
27039;SDS011;14589;51.578;7.306;2022-12-07T00:25:50;33.28;;;20.00;;
27039;SDS011;14589;51.578;7.306;2022-12-07T00:28:16;35.80;;;19.50;;
27039;SDS011;14589;51.578;7.306;2022-12-07T00:30:41;40.60;;;18.88;;
27039;SDS011;14589;51.578;7.306;2022-12-07T00:33:07;36.63;;;20.05;;
27039;SDS011;14589;51.578;7.306;2022-12-07T00:35:32;34.78;;;19.20;;
27039;SDS011;14589;51.578;7.306;2022-12-07T00:38:01;30.20;;;17.52;;
27039;SDS011;14589;51.578;7.306;2022-12-07T00:40:26;32.72;;;17.45;;
27039;SDS011;14589;51.578;7.306;2022-12-07T00:42:52;31.73;;;17.95;;
27039;SDS011;14589;51.578;7.306;2022-12-07T00:45:17;32.40;;;18.48;;
27039;SDS011;14589;51.578;7.306;2022-12-07T00:47:43;34.28;;;19.55;;
27039;SDS011;14589;51.578;7.306;2022-12-07T00:50:08;34.78;;;18.08;;
27039;SDS011;14589;51.578;7.306;2022-12-07T00:52:34;37.90;;;19.17;;
27039;SDS011;14589;51.578;7.306;2022-12-07T00:54:59;37.47;;;19.85;;
27039;SDS011;14589;51.578;7.306;2022-12-07T00:57:25;39.38;;;18.17;;
27039;SDS011;14589;51.578;7.306;2022-12-07T00:59:57;33.38;;;17.52;;
27039;SDS011;14589;51.578;7.306;2022-12-07T01:02:26;32.17;;;17.50;;
27039;SDS011;14589;51.578;7.306;2022-12-07T01:05:05;36.83;;;19.27;;
27039;SDS011;14589;51.578;7.306;2022-12-07T01:07:43;34.95;;;19.58;;
27039;SDS011;14589;51.578;7.306;2022-12-07T01:10:12;33.80;;;17.75;;
27039;SDS011;14589;51.578;7.306;2022-12-07T01:12:39;42.58;;;20.48;;
27039;SDS011;14589;51.578;7.306;2022-12-07T01:15:08;36.40;;;18.85;;
27039;SDS011;14589;51.578;7.306;2022-12-07T01:17:34;34.88;;;18.75;;
27039;SDS011;14589;51.578;7.306;2022-12-07T01:20:00;34.58;;;19.00;;
27039;SDS011;14589;51.578;7.306;2022-12-07T01:22:38;36.08;;;18.85;;
27039;SDS011;14589;51.578;7.306;2022-12-07T01:25:06;32.22;;;18.95;;
27039;SDS011;14589;51.578;7.306;2022-12-07T01:27:36;33.28;;;18.13;;
27039;SDS011;14589;51.578;7.306;2022-12-07T01:30:02;34.67;;;18.48;;
27039;SDS011;14589;51.578;7.306;2022-12-07T01:32:52;40.65;;;19.83;;
27039;SDS011;14589;51.578;7.306;2022-12-07T01:35:21;34.10;;;17.92;;
27039;SDS011;14589;51.578;7.306;2022-12-07T01:37:47;31.77;;;17.58;;
27039;SDS011;14589;51.578;7.306;2022-12-07T01:40:22;34.65;;;18.77;;
27039;SDS011;14589;51.578;7.306;2022-12-07T01:42:47;33.90;;;18.08;;
27039;SDS011;14589;51.578;7.306;2022-12-07T01:48:07;35.38;;;18.88;;
27039;SDS011;14589;51.578;7.306;2022-12-07T01:50:37;37.47;;;19.05;;
27039;SDS011;14589;51.578;7.306;2022-12-07T01:53:06;31.90;;;18.95;;
27039;SDS011;14589;51.578;7.306;2022-12-07T01:55:34;34.92;;;18.38;;
27039;SDS011;14589;51.578;7.306;2022-12-07T01:58:00;34.58;;;17.13;;
27039;SDS011;14589;51.578;7.306;2022-12-07T02:00:25;35.67;;;17.80;;
27039;SDS011;14589;51.578;7.306;2022-12-07T02:02:53;32.38;;;17.88;;
27039;SDS011;14589;51.578;7.306;2022-12-07T02:05:21;29.40;;;16.98;;
27039;SDS011;14589;51.578;7.306;2022-12-07T02:07:49;38.58;;;17.35;;
27039;SDS011;14589;51.578;7.306;2022-12-07T02:12:47;30.52;;;16.30;;
27039;SDS011;14589;51.578;7.306;2022-12-07T02:15:14;34.35;;;17.55;;
27039;SDS011;14589;51.578;7.306;2022-12-07T02:20:38;34.80;;;15.07;;
27039;SDS011;14589;51.578;7.306;2022-12-07T02:31:26;31.52;;;15.80;;
27039;SDS011;14589;51.578;7.306;2022-12-07T02:33:58;30.52;;;16.70;;
27039;SDS011;14589;51.578;7.306;2022-12-07T02:36:30;53.42;;;21.42;;
27039;SDS011;14589;51.578;7.306;2022-12-07T02:39:00;32.15;;;17.05;;
27039;SDS011;14589;51.578;7.306;2022-12-07T02:41:29;33.15;;;18.05;;
27039;SDS011;14589;51.578;7.306;2022-12-07T02:43:57;30.67;;;16.40;;
27039;SDS011;14589;51.578;7.306;2022-12-07T02:46:32;27.15;;;16.02;;
27039;SDS011;14589;51.578;7.306;2022-12-07T02:49:00;35.10;;;17.55;;
27039;SDS011;14589;51.578;7.306;2022-12-07T02:51:27;34.88;;;17.77;;
27039;SDS011;14589;51.578;7.306;2022-12-07T02:53:55;33.70;;;16.85;;
27039;SDS011;14589;51.578;7.306;2022-12-07T02:59:02;34.88;;;17.98;;
27039;SDS011;14589;51.578;7.306;2022-12-07T03:07:26;30.00;;;17.92;;
27039;SDS011;14589;51.578;7.306;2022-12-07T03:10:01;29.00;;;17.02;;
27039;SDS011;14589;51.578;7.306;2022-12-07T03:12:56;35.50;;;17.40;;
27039;SDS011;14589;51.578;7.306;2022-12-07T03:15:46;30.50;;;15.85;;
27039;SDS011;14589;51.578;7.306;2022-12-07T03:18:35;32.30;;;17.08;;
27039;SDS011;14589;51.578;7.306;2022-12-07T03:21:06;32.03;;;17.30;;
27039;SDS011;14589;51.578;7.306;2022-12-07T03:23:37;34.25;;;17.73;;
27039;SDS011;14589;51.578;7.306;2022-12-07T03:26:04;33.35;;;18.42;;
27039;SDS011;14589;51.578;7.306;2022-12-07T03:28:31;33.70;;;18.95;;
27039;SDS011;14589;51.578;7.306;2022-12-07T03:33:36;37.42;;;19.98;;
27039;SDS011;14589;51.578;7.306;2022-12-07T03:36:14;36.22;;;19.50;;
27039;SDS011;14589;51.578;7.306;2022-12-07T03:38:50;39.00;;;20.90;;
27039;SDS011;14589;51.578;7.306;2022-12-07T03:41:22;38.25;;;20.90;;
27039;SDS011;14589;51.578;7.306;2022-12-07T03:43:50;45.92;;;22.65;;
27039;SDS011;14589;51.578;7.306;2022-12-07T03:46:36;38.95;;;20.85;;
27039;SDS011;14589;51.578;7.306;2022-12-07T03:49:12;39.42;;;20.77;;
27039;SDS011;14589;51.578;7.306;2022-12-07T03:54:27;39.53;;;20.67;;
27039;SDS011;14589;51.578;7.306;2022-12-07T03:56:55;33.38;;;17.77;;
27039;SDS011;14589;51.578;7.306;2022-12-07T03:59:22;43.00;;;19.48;;
27039;SDS011;14589;51.578;7.306;2022-12-07T04:01:52;48.85;;;20.88;;
27039;SDS011;14589;51.578;7.306;2022-12-07T04:04:19;37.53;;;19.45;;
27039;SDS011;14589;51.578;7.306;2022-12-07T04:06:45;49.58;;;21.27;;
27039;SDS011;14589;51.578;7.306;2022-12-07T04:12:22;37.65;;;20.08;;
27039;SDS011;14589;51.578;7.306;2022-12-07T04:14:47;34.92;;;18.33;;
27039;SDS011;14589;51.578;7.306;2022-12-07T04:17:13;40.15;;;19.33;;
27039;SDS011;14589;51.578;7.306;2022-12-07T04:19:38;39.67;;;19.65;;
27039;SDS011;14589;51.578;7.306;2022-12-07T04:22:04;36.10;;;19.92;;
27039;SDS011;14589;51.578;7.306;2022-12-07T04:24:30;40.13;;;20.38;;
27039;SDS011;14589;51.578;7.306;2022-12-07T04:26:55;42.15;;;20.65;;
27039;SDS011;14589;51.578;7.306;2022-12-07T04:29:21;44.20;;;19.02;;
27039;SDS011;14589;51.578;7.306;2022-12-07T04:31:47;42.42;;;20.13;;
27039;SDS011;14589;51.578;7.306;2022-12-07T04:34:13;37.28;;;19.80;;
27039;SDS011;14589;51.578;7.306;2022-12-07T04:36:39;44.55;;;19.77;;
27039;SDS011;14589;51.578;7.306;2022-12-07T04:39:05;39.60;;;20.85;;
27039;SDS011;14589;51.578;7.306;2022-12-07T04:41:31;43.60;;;19.95;;
27039;SDS011;14589;51.578;7.306;2022-12-07T04:43:58;41.53;;;20.25;;
27039;SDS011;14589;51.578;7.306;2022-12-07T04:46:28;37.63;;;19.77;;
27039;SDS011;14589;51.578;7.306;2022-12-07T04:48:55;40.47;;;19.17;;
27039;SDS011;14589;51.578;7.306;2022-12-07T04:51:26;37.63;;;18.95;;
27039;SDS011;14589;51.578;7.306;2022-12-07T04:53:53;42.97;;;19.90;;
27039;SDS011;14589;51.578;7.306;2022-12-07T04:56:19;38.78;;;18.63;;
27039;SDS011;14589;51.578;7.306;2022-12-07T04:58:45;41.72;;;20.38;;
27039;SDS011;14589;51.578;7.306;2022-12-07T05:01:12;35.70;;;17.88;;
27039;SDS011;14589;51.578;7.306;2022-12-07T05:03:37;47.72;;;20.77;;
27039;SDS011;14589;51.578;7.306;2022-12-07T05:06:03;38.65;;;19.58;;
27039;SDS011;14589;51.578;7.306;2022-12-07T05:08:29;36.60;;;18.52;;
27039;SDS011;14589;51.578;7.306;2022-12-07T05:10:55;43.90;;;20.13;;
27039;SDS011;14589;51.578;7.306;2022-12-07T05:13:20;44.28;;;20.35;;
27039;SDS011;14589;51.578;7.306;2022-12-07T05:15:46;42.70;;;18.48;;
27039;SDS011;14589;51.578;7.306;2022-12-07T05:18:12;43.75;;;19.08;;
27039;SDS011;14589;51.578;7.306;2022-12-07T05:20:39;39.83;;;19.42;;
27039;SDS011;14589;51.578;7.306;2022-12-07T05:23:05;45.33;;;21.42;;
27039;SDS011;14589;51.578;7.306;2022-12-07T05:25:30;38.40;;;19.40;;
27039;SDS011;14589;51.578;7.306;2022-12-07T05:27:56;42.47;;;20.73;;
27039;SDS011;14589;51.578;7.306;2022-12-07T05:30:22;41.08;;;19.83;;
27039;SDS011;14589;51.578;7.306;2022-12-07T05:32:48;39.15;;;19.15;;
27039;SDS011;14589;51.578;7.306;2022-12-07T05:35:14;41.03;;;19.25;;
27039;SDS011;14589;51.578;7.306;2022-12-07T05:37:39;39.72;;;19.20;;
27039;SDS011;14589;51.578;7.306;2022-12-07T05:40:05;39.20;;;18.15;;
27039;SDS011;14589;51.578;7.306;2022-12-07T05:42:31;40.72;;;19.50;;
27039;SDS011;14589;51.578;7.306;2022-12-07T05:44:56;45.10;;;19.23;;
27039;SDS011;14589;51.578;7.306;2022-12-07T05:47:21;39.80;;;19.95;;
27039;SDS011;14589;51.578;7.306;2022-12-07T05:49:48;38.72;;;18.80;;
27039;SDS011;14589;51.578;7.306;2022-12-07T05:52:16;39.05;;;18.92;;
27039;SDS011;14589;51.578;7.306;2022-12-07T05:54:41;37.40;;;18.63;;
27039;SDS011;14589;51.578;7.306;2022-12-07T05:57:07;41.10;;;18.88;;
27039;SDS011;14589;51.578;7.306;2022-12-07T05:59:32;41.35;;;18.83;;
27039;SDS011;14589;51.578;7.306;2022-12-07T06:01:59;39.22;;;18.55;;
27039;SDS011;14589;51.578;7.306;2022-12-07T06:04:28;39.00;;;17.77;;
27039;SDS011;14589;51.578;7.306;2022-12-07T06:06:55;43.20;;;19.10;;
27039;SDS011;14589;51.578;7.306;2022-12-07T06:09:23;41.65;;;19.90;;
27039;SDS011;14589;51.578;7.306;2022-12-07T06:11:49;40.35;;;18.15;;
27039;SDS011;14589;51.578;7.306;2022-12-07T06:14:33;43.40;;;20.10;;
27039;SDS011;14589;51.578;7.306;2022-12-07T06:19:29;36.28;;;17.55;;
27039;SDS011;14589;51.578;7.306;2022-12-07T06:21:56;41.85;;;18.63;;
27039;SDS011;14589;51.578;7.306;2022-12-07T06:24:27;40.63;;;17.92;;
27039;SDS011;14589;51.578;7.306;2022-12-07T06:26:52;38.60;;;17.88;;
27039;SDS011;14589;51.578;7.306;2022-12-07T06:29:18;33.40;;;16.92;;
27039;SDS011;14589;51.578;7.306;2022-12-07T06:31:44;38.47;;;17.20;;
27039;SDS011;14589;51.578;7.306;2022-12-07T06:34:10;35.38;;;16.83;;
27039;SDS011;14589;51.578;7.306;2022-12-07T06:36:38;29.60;;;14.95;;
27039;SDS011;14589;51.578;7.306;2022-12-07T06:39:03;30.65;;;15.48;;
27039;SDS011;14589;51.578;7.306;2022-12-07T06:41:29;39.33;;;16.42;;
27039;SDS011;14589;51.578;7.306;2022-12-07T06:43:57;31.98;;;15.30;;
27039;SDS011;14589;51.578;7.306;2022-12-07T06:46:22;25.20;;;14.15;;
27039;SDS011;14589;51.578;7.306;2022-12-07T06:48:48;29.83;;;15.27;;
27039;SDS011;14589;51.578;7.306;2022-12-07T06:51:14;31.58;;;15.60;;
27039;SDS011;14589;51.578;7.306;2022-12-07T06:53:39;36.38;;;18.25;;
27039;SDS011;14589;51.578;7.306;2022-12-07T06:56:04;37.95;;;16.20;;
27039;SDS011;14589;51.578;7.306;2022-12-07T06:58:30;30.40;;;14.98;;
27039;SDS011;14589;51.578;7.306;2022-12-07T07:00:56;32.90;;;15.65;;
27039;SDS011;14589;51.578;7.306;2022-12-07T07:03:21;33.22;;;15.95;;
27039;SDS011;14589;51.578;7.306;2022-12-07T07:05:47;41.75;;;17.58;;
27039;SDS011;14589;51.578;7.306;2022-12-07T07:08:13;34.35;;;16.75;;
27039;SDS011;14589;51.578;7.306;2022-12-07T07:10:39;35.25;;;16.55;;
27039;SDS011;14589;51.578;7.306;2022-12-07T07:13:04;31.83;;;15.63;;
27039;SDS011;14589;51.578;7.306;2022-12-07T07:15:30;31.95;;;14.80;;
27039;SDS011;14589;51.578;7.306;2022-12-07T07:17:56;39.75;;;17.90;;
27039;SDS011;14589;51.578;7.306;2022-12-07T07:20:21;38.47;;;16.35;;
27039;SDS011;14589;51.578;7.306;2022-12-07T07:22:47;34.10;;;15.88;;
27039;SDS011;14589;51.578;7.306;2022-12-07T07:25:13;35.63;;;17.55;;
27039;SDS011;14589;51.578;7.306;2022-12-07T07:27:38;33.20;;;15.63;;
27039;SDS011;14589;51.578;7.306;2022-12-07T07:30:04;29.50;;;15.65;;
27039;SDS011;14589;51.578;7.306;2022-12-07T07:32:30;33.40;;;15.40;;
27039;SDS011;14589;51.578;7.306;2022-12-07T07:34:55;38.50;;;15.55;;
27039;SDS011;14589;51.578;7.306;2022-12-07T07:37:21;29.40;;;15.52;;
27039;SDS011;14589;51.578;7.306;2022-12-07T07:39:46;31.15;;;15.85;;
27039;SDS011;14589;51.578;7.306;2022-12-07T07:42:11;31.75;;;15.15;;
27039;SDS011;14589;51.578;7.306;2022-12-07T07:44:37;35.95;;;14.57;;
27039;SDS011;14589;51.578;7.306;2022-12-07T07:47:03;34.97;;;15.65;;
27039;SDS011;14589;51.578;7.306;2022-12-07T07:49:28;32.03;;;14.88;;
27039;SDS011;14589;51.578;7.306;2022-12-07T07:51:54;32.15;;;14.80;;
27039;SDS011;14589;51.578;7.306;2022-12-07T07:54:19;34.08;;;14.98;;
27039;SDS011;14589;51.578;7.306;2022-12-07T07:56:44;27.27;;;13.43;;
27039;SDS011;14589;51.578;7.306;2022-12-07T07:59:10;34.88;;;15.30;;
27039;SDS011;14589;51.578;7.306;2022-12-07T08:01:35;32.28;;;14.20;;
27039;SDS011;14589;51.578;7.306;2022-12-07T08:04:01;32.42;;;14.57;;
27039;SDS011;14589;51.578;7.306;2022-12-07T08:06:26;40.15;;;15.00;;
27039;SDS011;14589;51.578;7.306;2022-12-07T08:08:52;30.27;;;13.90;;
27039;SDS011;14589;51.578;7.306;2022-12-07T08:11:17;29.45;;;13.63;;
27039;SDS011;14589;51.578;7.306;2022-12-07T08:13:44;26.40;;;13.27;;
27039;SDS011;14589;51.578;7.306;2022-12-07T08:16:11;29.27;;;13.50;;
27039;SDS011;14589;51.578;7.306;2022-12-07T08:18:38;30.55;;;14.52;;
27039;SDS011;14589;51.578;7.306;2022-12-07T08:21:04;30.08;;;13.23;;
27039;SDS011;14589;51.578;7.306;2022-12-07T08:23:31;29.30;;;13.00;;
27039;SDS011;14589;51.578;7.306;2022-12-07T08:26:15;35.15;;;13.93;;
27039;SDS011;14589;51.578;7.306;2022-12-07T08:28:41;30.05;;;13.10;;
27039;SDS011;14589;51.578;7.306;2022-12-07T08:31:08;25.00;;;12.63;;
27039;SDS011;14589;51.578;7.306;2022-12-07T08:33:36;24.90;;;12.73;;
27039;SDS011;14589;51.578;7.306;2022-12-07T08:36:03;20.83;;;11.85;;
27039;SDS011;14589;51.578;7.306;2022-12-07T08:38:36;22.98;;;11.02;;
27039;SDS011;14589;51.578;7.306;2022-12-07T08:41:02;23.45;;;11.18;;
27039;SDS011;14589;51.578;7.306;2022-12-07T08:43:28;27.50;;;10.73;;
27039;SDS011;14589;51.578;7.306;2022-12-07T08:46:10;21.45;;;11.88;;
27039;SDS011;14589;51.578;7.306;2022-12-07T08:48:43;18.63;;;9.75;;
27039;SDS011;14589;51.578;7.306;2022-12-07T08:51:12;20.37;;;10.10;;
27039;SDS011;14589;51.578;7.306;2022-12-07T08:53:37;24.48;;;10.27;;
27039;SDS011;14589;51.578;7.306;2022-12-07T08:56:04;25.98;;;10.68;;
27039;SDS011;14589;51.578;7.306;2022-12-07T08:58:30;18.50;;;9.70;;
27039;SDS011;14589;51.578;7.306;2022-12-07T09:00:55;16.92;;;10.00;;
27039;SDS011;14589;51.578;7.306;2022-12-07T09:03:21;22.55;;;9.85;;
27039;SDS011;14589;51.578;7.306;2022-12-07T09:05:46;20.17;;;10.48;;
27039;SDS011;14589;51.578;7.306;2022-12-07T09:08:12;21.27;;;11.23;;
27039;SDS011;14589;51.578;7.306;2022-12-07T09:10:39;28.55;;;11.52;;
27039;SDS011;14589;51.578;7.306;2022-12-07T09:13:04;24.50;;;10.30;;
27039;SDS011;14589;51.578;7.306;2022-12-07T09:15:29;21.67;;;10.50;;
27039;SDS011;14589;51.578;7.306;2022-12-07T09:17:56;22.75;;;10.45;;
27039;SDS011;14589;51.578;7.306;2022-12-07T09:20:22;21.80;;;10.07;;
27039;SDS011;14589;51.578;7.306;2022-12-07T09:22:48;23.80;;;10.90;;
27039;SDS011;14589;51.578;7.306;2022-12-07T09:25:13;20.50;;;9.48;;
27039;SDS011;14589;51.578;7.306;2022-12-07T09:27:39;18.23;;;9.98;;
27039;SDS011;14589;51.578;7.306;2022-12-07T09:30:04;25.92;;;10.55;;
27039;SDS011;14589;51.578;7.306;2022-12-07T09:32:30;23.63;;;11.07;;
27039;SDS011;14589;51.578;7.306;2022-12-07T09:34:56;19.77;;;9.38;;
27039;SDS011;14589;51.578;7.306;2022-12-07T09:37:21;22.75;;;11.23;;
27039;SDS011;14589;51.578;7.306;2022-12-07T09:39:47;20.05;;;9.55;;
27039;SDS011;14589;51.578;7.306;2022-12-07T09:42:34;18.30;;;8.50;;
27039;SDS011;14589;51.578;7.306;2022-12-07T09:44:59;23.08;;;8.90;;
27039;SDS011;14589;51.578;7.306;2022-12-07T09:47:26;17.70;;;8.30;;
27039;SDS011;14589;51.578;7.306;2022-12-07T09:49:51;18.77;;;8.55;;
27039;SDS011;14589;51.578;7.306;2022-12-07T09:52:21;18.52;;;8.88;;
27039;SDS011;14589;51.578;7.306;2022-12-07T09:54:50;25.17;;;11.02;;
27039;SDS011;14589;51.578;7.306;2022-12-07T09:57:17;16.08;;;9.57;;
27039;SDS011;14589;51.578;7.306;2022-12-07T09:59:43;21.55;;;10.68;;
27039;SDS011;14589;51.578;7.306;2022-12-07T10:07:57;24.80;;;7.43;;
27039;SDS011;14589;51.578;7.306;2022-12-07T10:10:24;15.13;;;7.30;;
27039;SDS011;14589;51.578;7.306;2022-12-07T10:13:01;11.68;;;7.25;;
27039;SDS011;14589;51.578;7.306;2022-12-07T10:15:43;11.48;;;6.25;;
27039;SDS011;14589;51.578;7.306;2022-12-07T10:21:01;13.75;;;6.30;;
27039;SDS011;14589;51.578;7.306;2022-12-07T10:23:28;13.38;;;6.70;;
27039;SDS011;14589;51.578;7.306;2022-12-07T10:25:53;13.25;;;5.78;;
27039;SDS011;14589;51.578;7.306;2022-12-07T10:31:22;14.70;;;5.63;;
27039;SDS011;14589;51.578;7.306;2022-12-07T10:33:58;11.18;;;5.20;;
27039;SDS011;14589;51.578;7.306;2022-12-07T10:36:26;20.90;;;8.10;;
27039;SDS011;14589;51.578;7.306;2022-12-07T10:39:04;12.65;;;6.15;;
27039;SDS011;14589;51.578;7.306;2022-12-07T10:44:28;17.95;;;5.82;;
27039;SDS011;14589;51.578;7.306;2022-12-07T10:52:37;15.82;;;6.10;;
27039;SDS011;14589;51.578;7.306;2022-12-07T11:00:39;12.98;;;4.38;;
27039;SDS011;14589;51.578;7.306;2022-12-07T11:14:44;12.25;;;5.05;;
27039;SDS011;14589;51.578;7.306;2022-12-07T11:17:26;11.80;;;6.13;;
27039;SDS011;14589;51.578;7.306;2022-12-07T11:20:04;17.63;;;5.35;;
27039;SDS011;14589;51.578;7.306;2022-12-07T11:31:25;23.27;;;5.80;;
27039;SDS011;14589;51.578;7.306;2022-12-07T11:36:43;13.65;;;4.88;;
27039;SDS011;14589;51.578;7.306;2022-12-07T11:41:52;10.77;;;4.90;;
27039;SDS011;14589;51.578;7.306;2022-12-07T11:47:16;12.20;;;5.07;;
27039;SDS011;14589;51.578;7.306;2022-12-07T12:04:25;15.60;;;6.28;;
27039;SDS011;14589;51.578;7.306;2022-12-07T12:06:33;12.43;;;6.03;;
27039;SDS011;14589;51.578;7.306;2022-12-07T12:20:14;11.18;;;4.45;;
27039;SDS011;14589;51.578;7.306;2022-12-07T12:25:37;11.38;;;4.25;;
27039;SDS011;14589;51.578;7.306;2022-12-07T12:28:05;6.03;;;3.55;;
27039;SDS011;14589;51.578;7.306;2022-12-07T12:30:37;9.48;;;3.97;;
27039;SDS011;14589;51.578;7.306;2022-12-07T12:33:05;9.18;;;3.22;;
27039;SDS011;14589;51.578;7.306;2022-12-07T12:35:37;10.63;;;2.75;;
27039;SDS011;14589;51.578;7.306;2022-12-07T12:41:50;12.00;;;2.97;;
27039;SDS011;14589;51.578;7.306;2022-12-07T12:46:47;14.52;;;2.40;;
27039;SDS011;14589;51.578;7.306;2022-12-07T12:51:51;7.85;;;2.80;;
27039;SDS011;14589;51.578;7.306;2022-12-07T13:02:50;7.53;;;3.25;;
27039;SDS011;14589;51.578;7.306;2022-12-07T13:05:35;7.63;;;3.40;;
27039;SDS011;14589;51.578;7.306;2022-12-07T13:08:01;9.48;;;3.15;;
27039;SDS011;14589;51.578;7.306;2022-12-07T13:18:49;5.00;;;1.98;;
27039;SDS011;14589;51.578;7.306;2022-12-07T13:29:19;5.10;;;2.03;;
27039;SDS011;14589;51.578;7.306;2022-12-07T13:31:43;12.15;;;2.78;;
27039;SDS011;14589;51.578;7.306;2022-12-07T13:34:30;11.40;;;3.33;;
27039;SDS011;14589;51.578;7.306;2022-12-07T13:37:01;14.57;;;3.17;;
27039;SDS011;14589;51.578;7.306;2022-12-07T13:39:32;9.95;;;3.08;;
27039;SDS011;14589;51.578;7.306;2022-12-07T13:41:59;10.57;;;2.38;;
27039;SDS011;14589;51.578;7.306;2022-12-07T13:44:27;5.10;;;2.22;;
27039;SDS011;14589;51.578;7.306;2022-12-07T13:51:51;7.00;;;3.17;;
27039;SDS011;14589;51.578;7.306;2022-12-07T13:54:18;7.97;;;2.50;;
27039;SDS011;14589;51.578;7.306;2022-12-07T13:56:44;12.43;;;2.17;;
27039;SDS011;14589;51.578;7.306;2022-12-07T13:59:18;7.63;;;1.70;;
27039;SDS011;14589;51.578;7.306;2022-12-07T14:01:48;4.85;;;1.48;;
27039;SDS011;14589;51.578;7.306;2022-12-07T14:04:18;14.48;;;2.78;;
27039;SDS011;14589;51.578;7.306;2022-12-07T14:06:56;5.93;;;1.58;;
27039;SDS011;14589;51.578;7.306;2022-12-07T14:09:23;6.38;;;1.70;;
27039;SDS011;14589;51.578;7.306;2022-12-07T14:11:50;7.03;;;2.00;;
27039;SDS011;14589;51.578;7.306;2022-12-07T14:14:18;8.25;;;2.30;;
27039;SDS011;14589;51.578;7.306;2022-12-07T14:17:01;12.57;;;3.42;;
27039;SDS011;14589;51.578;7.306;2022-12-07T14:24:57;12.65;;;2.90;;
27039;SDS011;14589;51.578;7.306;2022-12-07T14:27:34;10.60;;;3.38;;
27039;SDS011;14589;51.578;7.306;2022-12-07T14:30:01;6.82;;;2.83;;
27039;SDS011;14589;51.578;7.306;2022-12-07T14:32:28;15.20;;;2.83;;
27039;SDS011;14589;51.578;7.306;2022-12-07T14:34:59;11.68;;;3.00;;
27039;SDS011;14589;51.578;7.306;2022-12-07T14:37:35;11.60;;;7.35;;
27039;SDS011;14589;51.578;7.306;2022-12-07T14:40:03;9.43;;;3.40;;
27039;SDS011;14589;51.578;7.306;2022-12-07T14:42:29;10.13;;;3.28;;
27039;SDS011;14589;51.578;7.306;2022-12-07T14:44:55;6.82;;;2.65;;
27039;SDS011;14589;51.578;7.306;2022-12-07T14:47:21;6.65;;;3.25;;
27039;SDS011;14589;51.578;7.306;2022-12-07T14:49:47;16.10;;;4.47;;
27039;SDS011;14589;51.578;7.306;2022-12-07T14:52:16;11.40;;;4.20;;
27039;SDS011;14589;51.578;7.306;2022-12-07T14:54:43;7.90;;;3.03;;
27039;SDS011;14589;51.578;7.306;2022-12-07T14:57:09;9.52;;;3.38;;
27039;SDS011;14589;51.578;7.306;2022-12-07T14:59:36;14.68;;;3.92;;
27039;SDS011;14589;51.578;7.306;2022-12-07T15:02:01;242.90;;;94.03;;
27039;SDS011;14589;51.578;7.306;2022-12-07T15:04:27;54.85;;;19.95;;
27039;SDS011;14589;51.578;7.306;2022-12-07T15:06:56;25.15;;;11.80;;
27039;SDS011;14589;51.578;7.306;2022-12-07T15:09:23;12.85;;;5.75;;
27039;SDS011;14589;51.578;7.306;2022-12-07T15:11:48;15.60;;;4.32;;
27039;SDS011;14589;51.578;7.306;2022-12-07T15:14:14;16.10;;;4.10;;
27039;SDS011;14589;51.578;7.306;2022-12-07T15:16:41;10.68;;;3.90;;
27039;SDS011;14589;51.578;7.306;2022-12-07T15:19:20;15.30;;;3.80;;
27039;SDS011;14589;51.578;7.306;2022-12-07T15:21:48;8.30;;;4.10;;
27039;SDS011;14589;51.578;7.306;2022-12-07T15:24:13;12.27;;;3.92;;
27039;SDS011;14589;51.578;7.306;2022-12-07T15:26:39;9.32;;;4.30;;
27039;SDS011;14589;51.578;7.306;2022-12-07T15:29:05;11.15;;;3.90;;
27039;SDS011;14589;51.578;7.306;2022-12-07T15:31:31;9.38;;;4.03;;
27039;SDS011;14589;51.578;7.306;2022-12-07T15:33:57;9.43;;;3.97;;
27039;SDS011;14589;51.578;7.306;2022-12-07T15:36:23;12.45;;;4.75;;
27039;SDS011;14589;51.578;7.306;2022-12-07T15:38:50;11.93;;;4.30;;
27039;SDS011;14589;51.578;7.306;2022-12-07T15:41:16;13.18;;;4.43;;
27039;SDS011;14589;51.578;7.306;2022-12-07T15:43:42;11.10;;;4.15;;
27039;SDS011;14589;51.578;7.306;2022-12-07T15:46:30;12.23;;;4.90;;
27039;SDS011;14589;51.578;7.306;2022-12-07T15:48:56;12.35;;;5.63;;
27039;SDS011;14589;51.578;7.306;2022-12-07T15:51:21;13.68;;;4.75;;
27039;SDS011;14589;51.578;7.306;2022-12-07T15:53:47;8.85;;;3.85;;
27039;SDS011;14589;51.578;7.306;2022-12-07T15:56:12;12.68;;;4.32;;
27039;SDS011;14589;51.578;7.306;2022-12-07T15:58:37;8.10;;;3.97;;
27039;SDS011;14589;51.578;7.306;2022-12-07T16:01:12;17.63;;;4.18;;
27039;SDS011;14589;51.578;7.306;2022-12-07T16:03:42;19.75;;;7.00;;
27039;SDS011;14589;51.578;7.306;2022-12-07T16:06:07;15.90;;;6.38;;
27039;SDS011;14589;51.578;7.306;2022-12-07T16:08:33;16.92;;;5.70;;
27039;SDS011;14589;51.578;7.306;2022-12-07T16:10:58;12.02;;;4.40;;
27039;SDS011;14589;51.578;7.306;2022-12-07T16:13:24;12.65;;;4.50;;
27039;SDS011;14589;51.578;7.306;2022-12-07T16:15:49;13.30;;;4.47;;
27039;SDS011;14589;51.578;7.306;2022-12-07T16:18:15;14.70;;;4.40;;
27039;SDS011;14589;51.578;7.306;2022-12-07T16:20:44;8.60;;;3.33;;
27039;SDS011;14589;51.578;7.306;2022-12-07T16:23:16;12.52;;;3.70;;
27039;SDS011;14589;51.578;7.306;2022-12-07T16:25:44;19.10;;;4.35;;
27039;SDS011;14589;51.578;7.306;2022-12-07T16:28:10;15.27;;;5.15;;
27039;SDS011;14589;51.578;7.306;2022-12-07T16:30:37;12.35;;;4.43;;
27039;SDS011;14589;51.578;7.306;2022-12-07T16:33:03;11.45;;;4.28;;
27039;SDS011;14589;51.578;7.306;2022-12-07T16:35:32;14.93;;;4.63;;
27039;SDS011;14589;51.578;7.306;2022-12-07T16:37:58;13.50;;;3.70;;
27039;SDS011;14589;51.578;7.306;2022-12-07T16:40:30;12.93;;;3.85;;
27039;SDS011;14589;51.578;7.306;2022-12-07T16:42:56;12.30;;;4.00;;
27039;SDS011;14589;51.578;7.306;2022-12-07T16:45:23;13.30;;;4.18;;
27039;SDS011;14589;51.578;7.306;2022-12-07T16:47:48;9.60;;;3.45;;
27039;SDS011;14589;51.578;7.306;2022-12-07T16:50:14;12.95;;;4.20;;
27039;SDS011;14589;51.578;7.306;2022-12-07T16:52:40;12.20;;;3.85;;
27039;SDS011;14589;51.578;7.306;2022-12-07T16:55:06;12.15;;;4.50;;
27039;SDS011;14589;51.578;7.306;2022-12-07T16:57:34;23.83;;;9.82;;
27039;SDS011;14589;51.578;7.306;2022-12-07T17:00:00;14.43;;;5.05;;
27039;SDS011;14589;51.578;7.306;2022-12-07T17:02:28;21.67;;;5.60;;
27039;SDS011;14589;51.578;7.306;2022-12-07T17:04:58;9.75;;;5.28;;
27039;SDS011;14589;51.578;7.306;2022-12-07T17:07:23;14.30;;;5.05;;
27039;SDS011;14589;51.578;7.306;2022-12-07T17:09:59;16.98;;;4.43;;
27039;SDS011;14589;51.578;7.306;2022-12-07T17:12:24;9.88;;;4.20;;
27039;SDS011;14589;51.578;7.306;2022-12-07T17:14:53;8.38;;;3.75;;
27039;SDS011;14589;51.578;7.306;2022-12-07T17:17:37;9.68;;;4.07;;
27039;SDS011;14589;51.578;7.306;2022-12-07T17:20:03;10.70;;;4.00;;